sensor_id;sensor_type;location;lat;lon;timestamp;temperature;humidity
41344;DHT22;27089;50.022;7.604;2023-07-30T00:02:21;16.80;99.90
41344;DHT22;27089;50.022;7.604;2023-07-30T00:04:48;16.80;99.90
41344;DHT22;27089;50.022;7.604;2023-07-30T00:07:15;16.80;99.90
41344;DHT22;27089;50.022;7.604;2023-07-30T00:09:42;16.80;99.90
41344;DHT22;27089;50.022;7.604;2023-07-30T00:12:10;16.80;99.90
41344;DHT22;27089;50.022;7.604;2023-07-30T00:14:38;16.80;99.90
41344;DHT22;27089;50.022;7.604;2023-07-30T00:17:05;16.80;99.90
41344;DHT22;27089;50.022;7.604;2023-07-30T00:19:32;16.90;99.90
41344;DHT22;27089;50.022;7.604;2023-07-30T00:22:01;16.80;99.90
41344;DHT22;27089;50.022;7.604;2023-07-30T00:24:28;16.80;99.90
41344;DHT22;27089;50.022;7.604;2023-07-30T00:26:55;16.80;99.90
41344;DHT22;27089;50.022;7.604;2023-07-30T00:29:22;16.80;99.90
41344;DHT22;27089;50.022;7.604;2023-07-30T00:31:50;16.80;99.90
41344;DHT22;27089;50.022;7.604;2023-07-30T00:34:17;16.80;99.90
41344;DHT22;27089;50.022;7.604;2023-07-30T00:36:44;16.80;99.90
41344;DHT22;27089;50.022;7.604;2023-07-30T00:39:11;16.80;99.90
41344;DHT22;27089;50.022;7.604;2023-07-30T00:41:38;16.80;99.90
41344;DHT22;27089;50.022;7.604;2023-07-30T00:44:05;16.80;99.90
41344;DHT22;27089;50.022;7.604;2023-07-30T00:46:32;16.80;99.90
41344;DHT22;27089;50.022;7.604;2023-07-30T00:49:01;16.80;99.90
41344;DHT22;27089;50.022;7.604;2023-07-30T00:51:30;16.80;99.90
41344;DHT22;27089;50.022;7.604;2023-07-30T00:53:58;16.80;99.90
41344;DHT22;27089;50.022;7.604;2023-07-30T00:56:25;16.80;99.90
41344;DHT22;27089;50.022;7.604;2023-07-30T00:58:53;16.80;99.90
41344;DHT22;27089;50.022;7.604;2023-07-30T01:01:21;16.80;99.90
41344;DHT22;27089;50.022;7.604;2023-07-30T01:03:48;16.80;99.90
41344;DHT22;27089;50.022;7.604;2023-07-30T01:06:17;16.80;99.90
41344;DHT22;27089;50.022;7.604;2023-07-30T01:08:45;16.80;99.90
41344;DHT22;27089;50.022;7.604;2023-07-30T01:11:13;16.80;99.90
41344;DHT22;27089;50.022;7.604;2023-07-30T01:13:41;16.80;99.90
41344;DHT22;27089;50.022;7.604;2023-07-30T01:16:09;16.80;99.90
41344;DHT22;27089;50.022;7.604;2023-07-30T01:18:37;16.70;99.90
41344;DHT22;27089;50.022;7.604;2023-07-30T01:21:05;16.70;99.90
41344;DHT22;27089;50.022;7.604;2023-07-30T01:23:32;16.70;99.90
41344;DHT22;27089;50.022;7.604;2023-07-30T01:26:02;16.70;99.90
41344;DHT22;27089;50.022;7.604;2023-07-30T01:28:36;16.70;99.90
41344;DHT22;27089;50.022;7.604;2023-07-30T01:31:05;16.70;99.90
41344;DHT22;27089;50.022;7.604;2023-07-30T01:33:33;16.70;99.90
41344;DHT22;27089;50.022;7.604;2023-07-30T01:36:01;16.70;99.90
41344;DHT22;27089;50.022;7.604;2023-07-30T01:38:29;16.70;99.90
41344;DHT22;27089;50.022;7.604;2023-07-30T01:40:57;16.60;99.90
41344;DHT22;27089;50.022;7.604;2023-07-30T01:43:26;16.60;99.90
41344;DHT22;27089;50.022;7.604;2023-07-30T01:45:54;16.60;99.90
41344;DHT22;27089;50.022;7.604;2023-07-30T01:48:20;16.60;99.90
41344;DHT22;27089;50.022;7.604;2023-07-30T01:50:47;16.60;99.90
41344;DHT22;27089;50.022;7.604;2023-07-30T01:53:14;16.60;99.90
41344;DHT22;27089;50.022;7.604;2023-07-30T01:55:43;16.60;99.90
41344;DHT22;27089;50.022;7.604;2023-07-30T01:58:12;16.60;99.90
41344;DHT22;27089;50.022;7.604;2023-07-30T02:00:39;16.60;99.90
41344;DHT22;27089;50.022;7.604;2023-07-30T02:03:06;16.60;99.90
41344;DHT22;27089;50.022;7.604;2023-07-30T02:05:33;16.60;99.90
41344;DHT22;27089;50.022;7.604;2023-07-30T02:08:00;16.60;99.90
41344;DHT22;27089;50.022;7.604;2023-07-30T02:10:27;16.60;99.90
41344;DHT22;27089;50.022;7.604;2023-07-30T02:12:56;16.60;99.90
41344;DHT22;27089;50.022;7.604;2023-07-30T02:15:23;16.60;99.90
41344;DHT22;27089;50.022;7.604;2023-07-30T02:17:50;16.60;99.90
41344;DHT22;27089;50.022;7.604;2023-07-30T02:20:17;16.60;99.90
41344;DHT22;27089;50.022;7.604;2023-07-30T02:22:44;16.60;99.90
41344;DHT22;27089;50.022;7.604;2023-07-30T02:25:11;16.60;99.90
41344;DHT22;27089;50.022;7.604;2023-07-30T02:27:37;16.60;99.90
41344;DHT22;27089;50.022;7.604;2023-07-30T02:30:07;16.50;99.90
41344;DHT22;27089;50.022;7.604;2023-07-30T02:32:34;16.50;99.90
41344;DHT22;27089;50.022;7.604;2023-07-30T02:35:01;16.40;99.90
41344;DHT22;27089;50.022;7.604;2023-07-30T02:37:28;16.40;99.90
41344;DHT22;27089;50.022;7.604;2023-07-30T02:39:54;16.30;99.90
41344;DHT22;27089;50.022;7.604;2023-07-30T02:42:21;16.20;99.90
41344;DHT22;27089;50.022;7.604;2023-07-30T02:44:48;16.10;99.90
41344;DHT22;27089;50.022;7.604;2023-07-30T02:47:17;16.00;99.90
41344;DHT22;27089;50.022;7.604;2023-07-30T02:49:44;15.90;99.90
41344;DHT22;27089;50.022;7.604;2023-07-30T02:52:11;15.80;99.90
41344;DHT22;27089;50.022;7.604;2023-07-30T02:54:38;15.70;99.90
41344;DHT22;27089;50.022;7.604;2023-07-30T02:57:05;15.70;99.90
41344;DHT22;27089;50.022;7.604;2023-07-30T02:59:32;15.70;99.90
41344;DHT22;27089;50.022;7.604;2023-07-30T03:02:01;15.60;99.90
41344;DHT22;27089;50.022;7.604;2023-07-30T03:04:31;15.60;99.90
41344;DHT22;27089;50.022;7.604;2023-07-30T03:06:58;15.50;99.90
41344;DHT22;27089;50.022;7.604;2023-07-30T03:09:25;15.50;99.90
41344;DHT22;27089;50.022;7.604;2023-07-30T03:11:53;15.50;99.90
41344;DHT22;27089;50.022;7.604;2023-07-30T03:14:20;15.40;99.90
41344;DHT22;27089;50.022;7.604;2023-07-30T03:16:47;15.40;99.90
41344;DHT22;27089;50.022;7.604;2023-07-30T03:19:14;15.40;99.90
41344;DHT22;27089;50.022;7.604;2023-07-30T03:21:43;15.40;99.90
41344;DHT22;27089;50.022;7.604;2023-07-30T03:24:10;15.30;99.90
41344;DHT22;27089;50.022;7.604;2023-07-30T03:26:37;15.30;99.90
41344;DHT22;27089;50.022;7.604;2023-07-30T03:29:04;15.30;99.90
41344;DHT22;27089;50.022;7.604;2023-07-30T03:31:31;15.40;99.90
41344;DHT22;27089;50.022;7.604;2023-07-30T03:33:58;15.40;99.90
41344;DHT22;27089;50.022;7.604;2023-07-30T03:36:25;15.40;99.90
41344;DHT22;27089;50.022;7.604;2023-07-30T03:38:53;15.40;99.90
41344;DHT22;27089;50.022;7.604;2023-07-30T03:41:20;15.40;99.90
41344;DHT22;27089;50.022;7.604;2023-07-30T03:43:48;15.30;99.90
41344;DHT22;27089;50.022;7.604;2023-07-30T03:46:15;15.30;99.90
41344;DHT22;27089;50.022;7.604;2023-07-30T03:48:42;15.20;99.90
41344;DHT22;27089;50.022;7.604;2023-07-30T03:51:09;15.10;99.90
41344;DHT22;27089;50.022;7.604;2023-07-30T03:53:36;15.10;99.90
41344;DHT22;27089;50.022;7.604;2023-07-30T03:56:04;15.00;99.90
41344;DHT22;27089;50.022;7.604;2023-07-30T03:58:31;14.90;99.90
41344;DHT22;27089;50.022;7.604;2023-07-30T04:00:58;14.90;99.90
41344;DHT22;27089;50.022;7.604;2023-07-30T04:03:25;14.80;99.90
41344;DHT22;27089;50.022;7.604;2023-07-30T04:05:52;14.70;99.90
41344;DHT22;27089;50.022;7.604;2023-07-30T04:08:19;14.60;99.90
41344;DHT22;27089;50.022;7.604;2023-07-30T04:10:46;14.60;99.90
41344;DHT22;27089;50.022;7.604;2023-07-30T04:13:15;14.50;99.90
41344;DHT22;27089;50.022;7.604;2023-07-30T04:15:42;14.50;99.90
41344;DHT22;27089;50.022;7.604;2023-07-30T04:18:09;14.50;99.90
41344;DHT22;27089;50.022;7.604;2023-07-30T04:20:36;14.50;99.90
41344;DHT22;27089;50.022;7.604;2023-07-30T04:23:03;14.50;99.90
41344;DHT22;27089;50.022;7.604;2023-07-30T04:25:30;14.50;99.90
41344;DHT22;27089;50.022;7.604;2023-07-30T04:27:57;14.50;99.90
41344;DHT22;27089;50.022;7.604;2023-07-30T04:30:26;14.50;99.90
41344;DHT22;27089;50.022;7.604;2023-07-30T04:32:52;14.50;99.90
41344;DHT22;27089;50.022;7.604;2023-07-30T04:35:19;14.70;99.90
41344;DHT22;27089;50.022;7.604;2023-07-30T04:37:46;14.90;99.90
41344;DHT22;27089;50.022;7.604;2023-07-30T04:40:13;15.20;99.90
41344;DHT22;27089;50.022;7.604;2023-07-30T04:42:40;15.60;99.90
41344;DHT22;27089;50.022;7.604;2023-07-30T04:45:08;16.00;99.90
41344;DHT22;27089;50.022;7.604;2023-07-30T04:47:36;16.20;99.90
41344;DHT22;27089;50.022;7.604;2023-07-30T04:50:04;16.20;99.90
41344;DHT22;27089;50.022;7.604;2023-07-30T04:52:31;16.20;99.90
41344;DHT22;27089;50.022;7.604;2023-07-30T04:54:58;16.10;99.90
41344;DHT22;27089;50.022;7.604;2023-07-30T04:57:25;16.10;99.90
41344;DHT22;27089;50.022;7.604;2023-07-30T04:59:52;16.10;99.90
41344;DHT22;27089;50.022;7.604;2023-07-30T05:02:19;16.20;99.90
41344;DHT22;27089;50.022;7.604;2023-07-30T05:04:47;16.20;99.90
41344;DHT22;27089;50.022;7.604;2023-07-30T05:07:14;16.20;99.90
41344;DHT22;27089;50.022;7.604;2023-07-30T05:09:41;16.30;99.90
41344;DHT22;27089;50.022;7.604;2023-07-30T05:12:08;16.40;99.90
41344;DHT22;27089;50.022;7.604;2023-07-30T05:14:35;16.50;99.90
41344;DHT22;27089;50.022;7.604;2023-07-30T05:17:02;16.60;99.90
41344;DHT22;27089;50.022;7.604;2023-07-30T05:19:29;16.70;99.90
41344;DHT22;27089;50.022;7.604;2023-07-30T05:21:59;16.90;99.90
41344;DHT22;27089;50.022;7.604;2023-07-30T05:24:27;17.00;99.90
41344;DHT22;27089;50.022;7.604;2023-07-30T05:26:54;17.20;99.90
41344;DHT22;27089;50.022;7.604;2023-07-30T05:29:21;17.40;99.90
41344;DHT22;27089;50.022;7.604;2023-07-30T05:31:48;17.60;99.90
41344;DHT22;27089;50.022;7.604;2023-07-30T05:34:15;17.70;99.90
41344;DHT22;27089;50.022;7.604;2023-07-30T05:36:42;17.80;99.90
41344;DHT22;27089;50.022;7.604;2023-07-30T05:39:10;17.80;99.90
41344;DHT22;27089;50.022;7.604;2023-07-30T05:41:37;17.80;99.90
41344;DHT22;27089;50.022;7.604;2023-07-30T05:44:04;17.70;99.90
41344;DHT22;27089;50.022;7.604;2023-07-30T05:46:31;17.60;99.90
41344;DHT22;27089;50.022;7.604;2023-07-30T05:48:58;17.40;99.90
41344;DHT22;27089;50.022;7.604;2023-07-30T05:51:25;17.40;99.90
41344;DHT22;27089;50.022;7.604;2023-07-30T05:53:52;17.30;99.90
41344;DHT22;27089;50.022;7.604;2023-07-30T05:56:20;17.30;99.90
41344;DHT22;27089;50.022;7.604;2023-07-30T05:58:47;17.20;99.90
41344;DHT22;27089;50.022;7.604;2023-07-30T06:01:14;17.20;99.90
41344;DHT22;27089;50.022;7.604;2023-07-30T06:03:41;17.10;99.90
41344;DHT22;27089;50.022;7.604;2023-07-30T06:06:08;17.10;99.90
41344;DHT22;27089;50.022;7.604;2023-07-30T06:08:35;17.10;99.90
41344;DHT22;27089;50.022;7.604;2023-07-30T06:11:02;17.20;99.90
41344;DHT22;27089;50.022;7.604;2023-07-30T06:13:31;17.20;99.90
41344;DHT22;27089;50.022;7.604;2023-07-30T06:15:58;17.20;99.90
41344;DHT22;27089;50.022;7.604;2023-07-30T06:18:25;17.20;99.90
41344;DHT22;27089;50.022;7.604;2023-07-30T06:20:52;17.20;99.90
41344;DHT22;27089;50.022;7.604;2023-07-30T06:23:19;17.20;99.90
41344;DHT22;27089;50.022;7.604;2023-07-30T06:25:45;17.10;99.90
41344;DHT22;27089;50.022;7.604;2023-07-30T06:28:12;17.10;99.90
41344;DHT22;27089;50.022;7.604;2023-07-30T06:30:41;17.10;99.90
41344;DHT22;27089;50.022;7.604;2023-07-30T06:33:08;17.20;99.90
41344;DHT22;27089;50.022;7.604;2023-07-30T06:35:35;17.20;99.90
41344;DHT22;27089;50.022;7.604;2023-07-30T06:38:02;17.30;99.90
41344;DHT22;27089;50.022;7.604;2023-07-30T06:40:29;17.40;99.90
41344;DHT22;27089;50.022;7.604;2023-07-30T06:42:55;17.40;99.90
41344;DHT22;27089;50.022;7.604;2023-07-30T06:45:22;17.30;99.90
41344;DHT22;27089;50.022;7.604;2023-07-30T06:47:51;17.30;99.90
41344;DHT22;27089;50.022;7.604;2023-07-30T06:50:18;17.40;99.90
41344;DHT22;27089;50.022;7.604;2023-07-30T06:52:45;17.40;99.90
41344;DHT22;27089;50.022;7.604;2023-07-30T06:55:12;17.40;99.90
41344;DHT22;27089;50.022;7.604;2023-07-30T06:57:39;17.30;99.90
41344;DHT22;27089;50.022;7.604;2023-07-30T07:00:07;17.30;99.90
41344;DHT22;27089;50.022;7.604;2023-07-30T07:02:34;17.30;99.90
41344;DHT22;27089;50.022;7.604;2023-07-30T07:05:03;17.30;99.90
41344;DHT22;27089;50.022;7.604;2023-07-30T07:07:30;17.30;99.90
41344;DHT22;27089;50.022;7.604;2023-07-30T07:09:58;17.40;99.90
41344;DHT22;27089;50.022;7.604;2023-07-30T07:12:24;17.50;99.90
41344;DHT22;27089;50.022;7.604;2023-07-30T07:14:52;17.60;99.90
41344;DHT22;27089;50.022;7.604;2023-07-30T07:17:19;17.80;99.90
41344;DHT22;27089;50.022;7.604;2023-07-30T07:19:46;18.10;99.90
41344;DHT22;27089;50.022;7.604;2023-07-30T07:22:14;18.40;99.90
41344;DHT22;27089;50.022;7.604;2023-07-30T07:24:43;18.70;99.90
41344;DHT22;27089;50.022;7.604;2023-07-30T07:27:11;19.10;99.90
41344;DHT22;27089;50.022;7.604;2023-07-30T07:29:38;19.40;99.90
41344;DHT22;27089;50.022;7.604;2023-07-30T07:32:05;19.70;99.90
41344;DHT22;27089;50.022;7.604;2023-07-30T07:34:32;20.10;99.90
41344;DHT22;27089;50.022;7.604;2023-07-30T07:36:59;20.40;99.90
41344;DHT22;27089;50.022;7.604;2023-07-30T07:39:28;20.50;99.90
41344;DHT22;27089;50.022;7.604;2023-07-30T07:41:55;20.20;99.90
41344;DHT22;27089;50.022;7.604;2023-07-30T07:44:23;19.90;99.90
41344;DHT22;27089;50.022;7.604;2023-07-30T07:46:50;19.50;99.90
41344;DHT22;27089;50.022;7.604;2023-07-30T07:49:17;19.30;99.90
41344;DHT22;27089;50.022;7.604;2023-07-30T07:51:44;19.00;99.90
41344;DHT22;27089;50.022;7.604;2023-07-30T07:54:11;18.90;99.90
41344;DHT22;27089;50.022;7.604;2023-07-30T07:56:39;18.70;99.90
41344;DHT22;27089;50.022;7.604;2023-07-30T07:59:06;18.50;99.90
41344;DHT22;27089;50.022;7.604;2023-07-30T08:01:33;18.30;99.90
41344;DHT22;27089;50.022;7.604;2023-07-30T08:04:00;18.10;99.90
41344;DHT22;27089;50.022;7.604;2023-07-30T08:06:27;18.00;99.90
41344;DHT22;27089;50.022;7.604;2023-07-30T08:08:54;18.00;99.90
41344;DHT22;27089;50.022;7.604;2023-07-30T08:11:21;18.00;99.90
41344;DHT22;27089;50.022;7.604;2023-07-30T08:13:49;17.80;99.90
41344;DHT22;27089;50.022;7.604;2023-07-30T08:16:16;17.70;99.90
41344;DHT22;27089;50.022;7.604;2023-07-30T08:18:43;17.50;99.90
41344;DHT22;27089;50.022;7.604;2023-07-30T08:21:10;17.50;99.90
41344;DHT22;27089;50.022;7.604;2023-07-30T08:23:37;17.40;99.90
41344;DHT22;27089;50.022;7.604;2023-07-30T08:26:04;17.50;99.90
41344;DHT22;27089;50.022;7.604;2023-07-30T08:28:31;17.60;99.90
41344;DHT22;27089;50.022;7.604;2023-07-30T08:31:01;17.60;99.90
41344;DHT22;27089;50.022;7.604;2023-07-30T08:33:28;17.90;99.90
41344;DHT22;27089;50.022;7.604;2023-07-30T08:35:56;18.30;99.90
41344;DHT22;27089;50.022;7.604;2023-07-30T08:38:23;18.70;99.90
41344;DHT22;27089;50.022;7.604;2023-07-30T08:40:50;19.00;99.90
41344;DHT22;27089;50.022;7.604;2023-07-30T08:43:18;19.20;99.90
41344;DHT22;27089;50.022;7.604;2023-07-30T08:45:45;19.50;99.90
41344;DHT22;27089;50.022;7.604;2023-07-30T08:48:14;19.60;99.90
41344;DHT22;27089;50.022;7.604;2023-07-30T08:50:41;19.60;99.90
41344;DHT22;27089;50.022;7.604;2023-07-30T08:53:08;19.70;99.90
41344;DHT22;27089;50.022;7.604;2023-07-30T08:55:36;20.20;99.90
41344;DHT22;27089;50.022;7.604;2023-07-30T08:58:06;21.90;99.90
41344;DHT22;27089;50.022;7.604;2023-07-30T09:00:35;22.20;99.90
41344;DHT22;27089;50.022;7.604;2023-07-30T09:03:04;23.00;99.90
41344;DHT22;27089;50.022;7.604;2023-07-30T09:05:33;24.00;99.90
41344;DHT22;27089;50.022;7.604;2023-07-30T09:08:00;24.70;99.90
41344;DHT22;27089;50.022;7.604;2023-07-30T09:10:27;24.70;99.90
41344;DHT22;27089;50.022;7.604;2023-07-30T09:12:54;24.90;99.90
41344;DHT22;27089;50.022;7.604;2023-07-30T09:15:29;24.50;99.90
41344;DHT22;27089;50.022;7.604;2023-07-30T09:17:59;23.90;99.90
41344;DHT22;27089;50.022;7.604;2023-07-30T09:20:26;23.20;99.90
41344;DHT22;27089;50.022;7.604;2023-07-30T09:22:57;22.40;99.90
41344;DHT22;27089;50.022;7.604;2023-07-30T09:25:24;21.70;99.90
41344;DHT22;27089;50.022;7.604;2023-07-30T09:27:51;21.00;99.90
41344;DHT22;27089;50.022;7.604;2023-07-30T09:30:23;20.40;99.90
41344;DHT22;27089;50.022;7.604;2023-07-30T09:32:52;19.70;99.90
41344;DHT22;27089;50.022;7.604;2023-07-30T09:35:20;19.10;99.90
41344;DHT22;27089;50.022;7.604;2023-07-30T09:37:48;18.80;99.90
41344;DHT22;27089;50.022;7.604;2023-07-30T09:40:16;18.60;99.90
41344;DHT22;27089;50.022;7.604;2023-07-30T09:42:46;18.60;99.90
41344;DHT22;27089;50.022;7.604;2023-07-30T09:45:21;18.50;99.90
41344;DHT22;27089;50.022;7.604;2023-07-30T09:47:48;18.30;99.90
41344;DHT22;27089;50.022;7.604;2023-07-30T09:50:15;18.10;99.90
41344;DHT22;27089;50.022;7.604;2023-07-30T09:52:43;18.00;99.90
41344;DHT22;27089;50.022;7.604;2023-07-30T09:55:10;18.40;99.90
41344;DHT22;27089;50.022;7.604;2023-07-30T09:57:39;19.50;99.90
41344;DHT22;27089;50.022;7.604;2023-07-30T10:00:07;20.20;99.90
41344;DHT22;27089;50.022;7.604;2023-07-30T10:02:38;20.40;99.90
41344;DHT22;27089;50.022;7.604;2023-07-30T10:05:10;21.80;99.90
41344;DHT22;27089;50.022;7.604;2023-07-30T10:07:39;23.50;99.90
41344;DHT22;27089;50.022;7.604;2023-07-30T10:10:09;24.50;99.90
41344;DHT22;27089;50.022;7.604;2023-07-30T10:12:38;24.40;99.90
41344;DHT22;27089;50.022;7.604;2023-07-30T10:15:07;23.80;99.90
41344;DHT22;27089;50.022;7.604;2023-07-30T10:17:35;23.00;99.90
41344;DHT22;27089;50.022;7.604;2023-07-30T10:20:20;22.60;99.90
41344;DHT22;27089;50.022;7.604;2023-07-30T10:22:51;22.20;99.90
41344;DHT22;27089;50.022;7.604;2023-07-30T10:25:21;21.70;99.90
41344;DHT22;27089;50.022;7.604;2023-07-30T10:27:51;21.20;99.90
41344;DHT22;27089;50.022;7.604;2023-07-30T10:30:19;21.10;99.90
41344;DHT22;27089;50.022;7.604;2023-07-30T10:33:03;20.90;99.90
41344;DHT22;27089;50.022;7.604;2023-07-30T10:35:38;21.00;99.90
41344;DHT22;27089;50.022;7.604;2023-07-30T10:38:16;21.40;99.90
41344;DHT22;27089;50.022;7.604;2023-07-30T10:41:00;21.80;99.90
41344;DHT22;27089;50.022;7.604;2023-07-30T10:43:29;21.90;99.90
41344;DHT22;27089;50.022;7.604;2023-07-30T10:45:56;21.80;99.90
41344;DHT22;27089;50.022;7.604;2023-07-30T10:48:33;21.60;99.90
41344;DHT22;27089;50.022;7.604;2023-07-30T10:51:01;21.30;99.90
41344;DHT22;27089;50.022;7.604;2023-07-30T10:53:28;21.00;99.90
41344;DHT22;27089;50.022;7.604;2023-07-30T10:55:58;20.80;99.90
41344;DHT22;27089;50.022;7.604;2023-07-30T10:58:28;20.60;99.90
41344;DHT22;27089;50.022;7.604;2023-07-30T11:00:56;20.30;99.90
41344;DHT22;27089;50.022;7.604;2023-07-30T11:03:24;20.10;99.90
41344;DHT22;27089;50.022;7.604;2023-07-30T11:05:52;20.00;99.90
41344;DHT22;27089;50.022;7.604;2023-07-30T11:08:21;19.70;99.90
41344;DHT22;27089;50.022;7.604;2023-07-30T11:10:48;19.50;99.90
41344;DHT22;27089;50.022;7.604;2023-07-30T11:13:15;19.40;99.90
41344;DHT22;27089;50.022;7.604;2023-07-30T11:15:44;19.50;99.90
41344;DHT22;27089;50.022;7.604;2023-07-30T11:18:12;19.70;99.90
41344;DHT22;27089;50.022;7.604;2023-07-30T11:20:39;19.80;99.90
41344;DHT22;27089;50.022;7.604;2023-07-30T11:23:21;20.20;99.90
41344;DHT22;27089;50.022;7.604;2023-07-30T11:25:49;20.50;99.90
41344;DHT22;27089;50.022;7.604;2023-07-30T11:28:27;20.80;99.90
41344;DHT22;27089;50.022;7.604;2023-07-30T11:30:58;21.20;99.90
41344;DHT22;27089;50.022;7.604;2023-07-30T11:33:26;21.70;99.90
41344;DHT22;27089;50.022;7.604;2023-07-30T11:35:54;22.00;99.90
41344;DHT22;27089;50.022;7.604;2023-07-30T11:38:22;22.20;99.90
41344;DHT22;27089;50.022;7.604;2023-07-30T11:40:50;22.20;99.90
41344;DHT22;27089;50.022;7.604;2023-07-30T11:43:17;22.10;99.90
41344;DHT22;27089;50.022;7.604;2023-07-30T11:45:44;21.90;99.90
41344;DHT22;27089;50.022;7.604;2023-07-30T11:48:12;21.50;99.90
41344;DHT22;27089;50.022;7.604;2023-07-30T11:50:45;21.20;99.90
41344;DHT22;27089;50.022;7.604;2023-07-30T11:53:13;21.00;99.90
41344;DHT22;27089;50.022;7.604;2023-07-30T11:55:41;21.00;99.90
41344;DHT22;27089;50.022;7.604;2023-07-30T11:58:10;21.30;99.90
41344;DHT22;27089;50.022;7.604;2023-07-30T12:00:37;21.50;99.90
41344;DHT22;27089;50.022;7.604;2023-07-30T12:03:05;21.70;99.90
41344;DHT22;27089;50.022;7.604;2023-07-30T12:05:35;21.80;99.90
41344;DHT22;27089;50.022;7.604;2023-07-30T12:08:03;21.70;99.90
41344;DHT22;27089;50.022;7.604;2023-07-30T12:10:42;21.50;99.90
41344;DHT22;27089;50.022;7.604;2023-07-30T12:13:15;21.10;99.90
41344;DHT22;27089;50.022;7.604;2023-07-30T12:15:44;20.80;99.90
41344;DHT22;27089;50.022;7.604;2023-07-30T12:18:11;20.80;99.90
41344;DHT22;27089;50.022;7.604;2023-07-30T12:20:39;20.80;99.90
41344;DHT22;27089;50.022;7.604;2023-07-30T12:23:06;20.90;99.90
41344;DHT22;27089;50.022;7.604;2023-07-30T12:25:33;21.10;99.90
41344;DHT22;27089;50.022;7.604;2023-07-30T12:28:00;21.10;99.90
41344;DHT22;27089;50.022;7.604;2023-07-30T12:30:27;21.00;99.90
41344;DHT22;27089;50.022;7.604;2023-07-30T12:32:54;21.00;99.90
41344;DHT22;27089;50.022;7.604;2023-07-30T12:35:21;21.20;99.90
41344;DHT22;27089;50.022;7.604;2023-07-30T12:37:50;21.30;99.90
41344;DHT22;27089;50.022;7.604;2023-07-30T12:40:17;21.70;99.90
41344;DHT22;27089;50.022;7.604;2023-07-30T12:42:44;22.00;99.90
41344;DHT22;27089;50.022;7.604;2023-07-30T12:45:10;22.30;99.90
41344;DHT22;27089;50.022;7.604;2023-07-30T12:47:37;22.40;99.90
41344;DHT22;27089;50.022;7.604;2023-07-30T12:50:05;22.30;99.90
41344;DHT22;27089;50.022;7.604;2023-07-30T12:52:32;22.20;99.90
41344;DHT22;27089;50.022;7.604;2023-07-30T12:55:01;22.10;99.90
41344;DHT22;27089;50.022;7.604;2023-07-30T12:57:30;22.00;99.90
41344;DHT22;27089;50.022;7.604;2023-07-30T12:59:57;22.00;99.90
41344;DHT22;27089;50.022;7.604;2023-07-30T13:02:24;21.90;99.90
41344;DHT22;27089;50.022;7.604;2023-07-30T13:04:51;21.90;99.90
41344;DHT22;27089;50.022;7.604;2023-07-30T13:07:18;22.10;99.90
41344;DHT22;27089;50.022;7.604;2023-07-30T13:09:46;22.10;99.90
41344;DHT22;27089;50.022;7.604;2023-07-30T13:12:14;22.00;99.90
41344;DHT22;27089;50.022;7.604;2023-07-30T13:14:41;22.00;99.90
41344;DHT22;27089;50.022;7.604;2023-07-30T13:17:08;22.10;99.90
41344;DHT22;27089;50.022;7.604;2023-07-30T13:19:35;22.60;99.90
41344;DHT22;27089;50.022;7.604;2023-07-30T13:22:02;22.80;99.90
41344;DHT22;27089;50.022;7.604;2023-07-30T13:24:29;22.70;99.90
41344;DHT22;27089;50.022;7.604;2023-07-30T13:26:57;22.50;99.90
41344;DHT22;27089;50.022;7.604;2023-07-30T13:29:25;22.30;99.90
41344;DHT22;27089;50.022;7.604;2023-07-30T13:31:52;22.20;99.90
41344;DHT22;27089;50.022;7.604;2023-07-30T13:34:19;22.20;99.90
41344;DHT22;27089;50.022;7.604;2023-07-30T13:36:46;22.60;99.90
41344;DHT22;27089;50.022;7.604;2023-07-30T13:39:13;22.80;99.90
41344;DHT22;27089;50.022;7.604;2023-07-30T13:41:40;22.80;99.90
41344;DHT22;27089;50.022;7.604;2023-07-30T13:44:07;22.70;99.90
41344;DHT22;27089;50.022;7.604;2023-07-30T13:46:37;22.60;99.90
41344;DHT22;27089;50.022;7.604;2023-07-30T13:49:05;22.30;99.90
41344;DHT22;27089;50.022;7.604;2023-07-30T13:51:33;22.10;99.90
41344;DHT22;27089;50.022;7.604;2023-07-30T13:54:00;21.90;99.90
41344;DHT22;27089;50.022;7.604;2023-07-30T13:56:27;22.00;99.90
41344;DHT22;27089;50.022;7.604;2023-07-30T13:58:54;22.30;99.90
41344;DHT22;27089;50.022;7.604;2023-07-30T14:01:21;22.70;99.90
41344;DHT22;27089;50.022;7.604;2023-07-30T14:03:49;23.10;99.90
41344;DHT22;27089;50.022;7.604;2023-07-30T14:06:16;23.10;99.90
41344;DHT22;27089;50.022;7.604;2023-07-30T14:08:43;23.10;99.90
41344;DHT22;27089;50.022;7.604;2023-07-30T14:11:10;23.00;99.90
41344;DHT22;27089;50.022;7.604;2023-07-30T14:13:37;22.80;99.90
41344;DHT22;27089;50.022;7.604;2023-07-30T14:16:04;22.70;99.90
41344;DHT22;27089;50.022;7.604;2023-07-30T14:18:31;22.60;99.90
41344;DHT22;27089;50.022;7.604;2023-07-30T14:20:59;22.30;99.90
41344;DHT22;27089;50.022;7.604;2023-07-30T14:23:28;22.20;99.90
41344;DHT22;27089;50.022;7.604;2023-07-30T14:25:55;22.10;99.90
41344;DHT22;27089;50.022;7.604;2023-07-30T14:28:22;22.00;99.90
41344;DHT22;27089;50.022;7.604;2023-07-30T14:30:49;21.80;99.90
41344;DHT22;27089;50.022;7.604;2023-07-30T14:33:16;21.80;99.90
41344;DHT22;27089;50.022;7.604;2023-07-30T14:35:42;21.80;99.90
41344;DHT22;27089;50.022;7.604;2023-07-30T14:38:11;21.80;99.90
41344;DHT22;27089;50.022;7.604;2023-07-30T14:40:38;21.80;99.90
41344;DHT22;27089;50.022;7.604;2023-07-30T14:43:05;21.70;99.90
41344;DHT22;27089;50.022;7.604;2023-07-30T14:45:32;21.80;99.90
41344;DHT22;27089;50.022;7.604;2023-07-30T14:47:59;21.90;99.90
41344;DHT22;27089;50.022;7.604;2023-07-30T14:50:26;22.10;99.90
41344;DHT22;27089;50.022;7.604;2023-07-30T14:52:54;22.30;99.90
41344;DHT22;27089;50.022;7.604;2023-07-30T14:55:23;22.50;99.90
41344;DHT22;27089;50.022;7.604;2023-07-30T14:57:49;22.60;99.90
41344;DHT22;27089;50.022;7.604;2023-07-30T15:00:16;22.50;99.90
41344;DHT22;27089;50.022;7.604;2023-07-30T15:02:43;22.30;99.90
41344;DHT22;27089;50.022;7.604;2023-07-30T15:05:10;22.20;99.90
41344;DHT22;27089;50.022;7.604;2023-07-30T15:07:37;21.80;99.90
41344;DHT22;27089;50.022;7.604;2023-07-30T15:10:05;21.40;99.90
41344;DHT22;27089;50.022;7.604;2023-07-30T15:12:34;21.30;99.90
41344;DHT22;27089;50.022;7.604;2023-07-30T15:15:01;21.40;99.90
41344;DHT22;27089;50.022;7.604;2023-07-30T15:17:28;21.50;99.90
41344;DHT22;27089;50.022;7.604;2023-07-30T15:19:55;21.60;99.90
41344;DHT22;27089;50.022;7.604;2023-07-30T15:22:24;21.60;99.90
41344;DHT22;27089;50.022;7.604;2023-07-30T15:24:52;21.70;99.90
41344;DHT22;27089;50.022;7.604;2023-07-30T15:27:19;21.70;99.90
41344;DHT22;27089;50.022;7.604;2023-07-30T15:29:47;21.90;99.90
41344;DHT22;27089;50.022;7.604;2023-07-30T15:32:14;22.20;99.90
41344;DHT22;27089;50.022;7.604;2023-07-30T15:34:41;22.20;99.90